createdAt,value
2019-01-27T00:05:49.122Z,17.90
2019-01-27T00:08:15.530Z,17.40
2019-01-27T00:14:05.465Z,13.80
2019-01-27T00:16:32.019Z,14.87
2019-01-27T00:18:58.394Z,14.83
2019-01-27T00:21:24.960Z,15.70
2019-01-27T00:27:25.290Z,15.70
2019-01-27T00:29:51.683Z,15.63
2019-01-27T00:35:42.566Z,17.00
2019-01-27T00:38:09.882Z,15.77
2019-01-27T00:40:37.132Z,17.10
2019-01-27T00:43:10.455Z,18.00
2019-01-27T00:45:37.841Z,18.47
2019-01-27T00:48:05.773Z,19.53
2019-01-27T00:50:34.661Z,17.93
2019-01-27T00:56:25.457Z,21.40
2019-01-27T00:58:52.524Z,21.60
2019-01-27T01:01:19.321Z,22.53
2019-01-27T01:03:46.018Z,21.03
2019-01-27T01:06:12.746Z,21.63
2019-01-27T01:08:39.494Z,21.00
2019-01-27T01:11:06.144Z,21.23
2019-01-27T01:13:32.576Z,21.23
2019-01-27T01:15:58.891Z,22.57
2019-01-27T01:18:31.417Z,22.60
2019-01-27T01:20:57.884Z,26.10
2019-01-27T01:23:24.533Z,23.10
2019-01-27T01:25:51.009Z,22.50
2019-01-27T01:28:17.733Z,23.67
2019-01-27T01:30:44.472Z,24.27
2019-01-27T01:33:11.148Z,22.40
2019-01-27T01:35:39.161Z,25.30
2019-01-27T01:38:05.818Z,25.17
2019-01-27T01:40:32.599Z,23.77
2019-01-27T01:42:59.445Z,24.77
2019-01-27T01:45:28.595Z,27.40
2019-01-27T01:47:55.636Z,25.70
2019-01-27T01:50:22.467Z,25.40
2019-01-27T01:52:49.935Z,25.77
2019-01-27T01:55:17.090Z,26.90
2019-01-27T01:57:44.474Z,26.83
2019-01-27T02:00:14.644Z,26.17
2019-01-27T02:02:41.495Z,27.23
2019-01-27T02:05:10.333Z,28.70
2019-01-27T02:07:37.280Z,27.03
2019-01-27T02:10:07.598Z,26.80
2019-01-27T02:12:34.312Z,28.40
2019-01-27T02:15:01.121Z,26.20
2019-01-27T02:17:27.568Z,28.37
2019-01-27T02:19:54.457Z,29.23
2019-01-27T02:22:21.214Z,27.77
2019-01-27T02:24:47.949Z,28.77
2019-01-27T02:27:14.575Z,29.00
2019-01-27T02:29:41.722Z,30.47
2019-01-27T02:32:08.486Z,28.00
2019-01-27T02:34:38.135Z,28.13
2019-01-27T02:37:04.951Z,29.03
2019-01-27T02:39:31.952Z,29.17
2019-01-27T02:41:59.016Z,29.63
2019-01-27T02:44:27.682Z,28.80
2019-01-27T02:46:54.854Z,33.30
2019-01-27T02:49:21.882Z,28.93
2019-01-27T02:51:49.153Z,31.23
2019-01-27T02:54:16.405Z,28.07
2019-01-27T02:56:45.120Z,30.50
2019-01-27T02:59:13.995Z,29.50
2019-01-27T03:01:41.392Z,27.70
2019-01-27T03:04:08.437Z,27.90
2019-01-27T03:06:37.080Z,26.63
2019-01-27T03:09:08.496Z,25.60
2019-01-27T03:11:37.538Z,27.67
2019-01-27T03:14:04.549Z,27.10
2019-01-27T03:16:34.594Z,27.47
2019-01-27T03:19:01.506Z,26.67
2019-01-27T03:21:28.190Z,26.33
2019-01-27T03:23:55.015Z,26.90
2019-01-27T03:26:22.029Z,27.50
2019-01-27T03:28:48.657Z,26.53
2019-01-27T03:31:15.522Z,24.10
2019-01-27T03:33:42.172Z,27.20
2019-01-27T03:36:11.177Z,26.07
2019-01-27T03:38:38.655Z,29.63
2019-01-27T03:41:06.182Z,28.07
2019-01-27T03:43:33.360Z,28.00
2019-01-27T03:46:00.241Z,28.07
2019-01-27T03:48:27.223Z,27.40
2019-01-27T03:50:54.709Z,28.37
2019-01-27T03:53:22.038Z,28.30
2019-01-27T03:55:49.392Z,25.90
2019-01-27T03:58:17.481Z,27.60
2019-01-27T04:00:44.419Z,25.87
2019-01-27T04:03:11.661Z,25.47
2019-01-27T04:05:39.509Z,25.70
2019-01-27T04:08:06.438Z,25.63
2019-01-27T04:10:33.443Z,25.87
2019-01-27T04:13:00.994Z,27.37
2019-01-27T04:15:28.071Z,24.27
2019-01-27T04:17:57.914Z,24.33
2019-01-27T04:20:27.124Z,26.00
2019-01-27T04:22:56.391Z,23.07
2019-01-27T04:25:23.185Z,23.73
2019-01-27T04:27:50.130Z,23.50
2019-01-27T04:30:29.315Z,24.07
2019-01-27T04:32:56.089Z,22.10
2019-01-27T04:35:26.308Z,20.80
2019-01-27T04:37:53.345Z,22.27
2019-01-27T04:40:22.043Z,21.73
2019-01-27T04:42:49.416Z,22.23
2019-01-27T04:45:18.333Z,21.27
2019-01-27T04:47:45.208Z,22.00
2019-01-27T04:50:13.233Z,22.10
2019-01-27T04:52:39.874Z,22.77
2019-01-27T04:55:09.790Z,22.30
2019-01-27T04:57:36.720Z,22.63
2019-01-27T05:00:09.510Z,20.30
2019-01-27T05:02:38.250Z,21.30
2019-01-27T05:05:11.413Z,20.77
2019-01-27T05:07:38.746Z,20.77
2019-01-27T05:10:09.238Z,20.77
2019-01-27T05:12:36.332Z,20.47
2019-01-27T05:15:07.026Z,21.13
2019-01-27T05:17:34.162Z,22.67
2019-01-27T05:20:04.414Z,21.23
2019-01-27T05:22:34.133Z,21.80
2019-01-27T05:25:01.690Z,20.30
2019-01-27T05:27:28.872Z,21.13
2019-01-27T05:29:55.885Z,20.63
2019-01-27T05:32:22.542Z,20.17
2019-01-27T05:34:48.971Z,19.07
2019-01-27T05:37:15.500Z,19.33
2019-01-27T05:39:42.890Z,20.30
2019-01-27T05:42:09.598Z,19.63
2019-01-27T05:44:36.755Z,19.87
2019-01-27T05:47:03.683Z,18.97
2019-01-27T05:49:31.525Z,19.00
2019-01-27T05:52:01.750Z,19.90
2019-01-27T05:54:28.937Z,19.00
2019-01-27T05:56:56.697Z,18.13
2019-01-27T05:59:24.398Z,18.23
2019-01-27T06:01:51.807Z,19.17
2019-01-27T06:04:18.658Z,18.90
2019-01-27T06:06:45.724Z,19.67
2019-01-27T06:09:12.928Z,19.63
2019-01-27T06:11:39.718Z,18.17
2019-01-27T06:14:06.867Z,19.67
2019-01-27T06:16:34.647Z,18.20
2019-01-27T06:19:01.730Z,19.07
2019-01-27T06:21:29.256Z,17.23
2019-01-27T06:23:56.411Z,18.50
2019-01-27T06:26:24.095Z,17.97
2019-01-27T06:28:52.263Z,18.30
2019-01-27T06:31:23.138Z,17.43
2019-01-27T06:33:52.616Z,17.57
2019-01-27T06:36:19.926Z,19.93
2019-01-27T06:38:47.024Z,18.93
2019-01-27T06:41:14.153Z,18.77
2019-01-27T06:43:41.060Z,16.67
2019-01-27T06:46:08.071Z,18.43
2019-01-27T06:48:34.955Z,17.67
2019-01-27T06:51:01.832Z,20.10
2019-01-27T06:53:28.718Z,17.87
2019-01-27T06:55:55.870Z,18.97
2019-01-27T06:58:28.025Z,17.97
2019-01-27T07:00:56.982Z,16.90
2019-01-27T07:03:30.838Z,16.40
2019-01-27T07:06:06.114Z,16.83
2019-01-27T07:08:48.240Z,18.23
2019-01-27T07:11:36.464Z,19.90
2019-01-27T07:14:11.434Z,20.57
2019-01-27T07:16:46.393Z,16.10
2019-01-27T07:19:32.190Z,17.13
2019-01-27T07:22:18.693Z,19.03
2019-01-27T07:24:50.570Z,17.77
2019-01-27T07:27:37.496Z,17.40
2019-01-27T07:30:12.814Z,18.00
2019-01-27T07:35:28.964Z,20.47
2019-01-27T07:38:01.891Z,19.20
2019-01-27T07:40:36.710Z,18.43
2019-01-27T07:43:08.117Z,19.40
2019-01-27T07:45:49.481Z,18.40
2019-01-27T07:48:18.282Z,17.60
2019-01-27T07:50:58.871Z,18.57
2019-01-27T07:53:44.371Z,17.37
2019-01-27T07:56:20.933Z,18.90
2019-01-27T07:58:50.183Z,18.47
2019-01-27T08:01:18.740Z,19.23
2019-01-27T08:03:53.810Z,18.30
2019-01-27T08:06:29.150Z,17.60
2019-01-27T08:08:58.269Z,18.70
2019-01-27T08:11:33.116Z,19.10
2019-01-27T08:14:04.841Z,19.03
2019-01-27T08:16:42.175Z,17.90
2019-01-27T08:19:14.085Z,17.73
2019-01-27T08:21:42.699Z,17.17
2019-01-27T08:24:27.186Z,16.97
2019-01-27T08:27:01.814Z,19.10
2019-01-27T08:29:35.103Z,17.60
2019-01-27T08:32:15.699Z,15.93
2019-01-27T08:34:53.077Z,17.73
2019-01-27T08:37:22.325Z,16.40
2019-01-27T08:39:51.270Z,19.10
2019-01-27T08:42:39.482Z,17.20
2019-01-27T08:45:16.380Z,17.30
2019-01-27T08:47:43.577Z,18.57
2019-01-27T08:50:13.902Z,16.40
2019-01-27T08:52:41.216Z,16.53
2019-01-27T08:55:12.724Z,16.33
2019-01-27T08:57:48.713Z,16.57
2019-01-27T09:00:21.995Z,17.27
2019-01-27T09:03:03.446Z,16.33
2019-01-27T09:05:33.727Z,16.70
2019-01-27T09:08:11.422Z,16.67
2019-01-27T09:10:42.877Z,17.70
2019-01-27T09:13:14.019Z,16.30
2019-01-27T09:15:54.583Z,16.83
2019-01-27T09:18:32.195Z,16.80
2019-01-27T09:21:03.325Z,17.63
2019-01-27T09:23:41.234Z,16.60
2019-01-27T09:26:23.084Z,17.90
2019-01-27T09:28:55.098Z,16.10
2019-01-27T09:31:26.787Z,16.23
2019-01-27T09:33:55.975Z,16.40
2019-01-27T09:36:27.911Z,16.50
2019-01-27T09:39:00.619Z,15.57
2019-01-27T09:41:29.818Z,17.70
2019-01-27T09:44:01.860Z,15.27
2019-01-27T09:46:33.539Z,16.40
2019-01-27T09:49:11.418Z,15.27
2019-01-27T09:51:44.560Z,14.87
2019-01-27T09:54:13.625Z,16.63
2019-01-27T10:00:09.628Z,16.60
2019-01-27T10:02:38.978Z,14.97
2019-01-27T10:05:09.687Z,14.00
2019-01-27T10:07:45.172Z,14.57
2019-01-27T10:10:17.225Z,13.70
2019-01-27T10:12:49.146Z,16.20
2019-01-27T10:15:33.307Z,15.60
2019-01-27T10:18:02.736Z,15.13
2019-01-27T10:23:57.354Z,14.07
2019-01-27T10:26:41.479Z,14.70
2019-01-27T10:32:45.334Z,13.77
2019-01-27T10:38:25.589Z,15.53
2019-01-27T10:40:54.869Z,15.20
2019-01-27T10:43:29.753Z,13.80
2019-01-27T10:49:23.147Z,15.07
2019-01-27T10:51:52.848Z,15.27
2019-01-27T10:54:33.944Z,14.90
2019-01-27T10:57:11.412Z,13.67
2019-01-27T11:02:42.628Z,13.70
2019-01-27T11:05:28.192Z,14.93
2019-01-27T11:08:15.725Z,15.30
2019-01-27T11:14:08.575Z,13.93
2019-01-27T11:20:01.704Z,13.13
2019-01-27T11:22:36.325Z,12.57
2019-01-27T11:25:20.143Z,12.87
2019-01-27T11:27:51.308Z,11.70
2019-01-27T11:30:24.955Z,12.77
2019-01-27T11:32:59.950Z,11.80
2019-01-27T11:35:39.595Z,10.63
2019-01-27T11:38:26.011Z,11.97
2019-01-27T11:40:56.643Z,10.67
2019-01-27T11:43:25.508Z,11.20
2019-01-27T11:46:11.419Z,10.80
2019-01-27T11:48:44.060Z,11.60
2019-01-27T11:57:18.258Z,10.27
2019-01-27T11:59:46.165Z,10.63
2019-01-27T12:02:13.035Z,10.17
2019-01-27T12:04:40.640Z,9.67
2019-01-27T12:07:08.552Z,11.20
2019-01-27T12:09:36.429Z,11.47
2019-01-27T12:12:04.209Z,10.43
2019-01-27T12:14:31.497Z,9.83
2019-01-27T12:16:58.596Z,9.97
2019-01-27T12:19:26.491Z,9.60
2019-01-27T12:21:53.811Z,10.23
2019-01-27T12:27:57.350Z,10.40
2019-01-27T12:30:24.133Z,10.43
2019-01-27T12:32:51.361Z,9.87
2019-01-27T12:35:18.922Z,9.33
2019-01-27T12:37:46.780Z,10.17
2019-01-27T12:40:37.148Z,9.57
2019-01-27T12:43:10.539Z,11.10
2019-01-27T12:49:02.284Z,10.63
2019-01-27T12:51:30.916Z,11.63
2019-01-27T12:57:11.398Z,10.50
2019-01-27T12:59:39.330Z,11.30
2019-01-27T13:02:07.002Z,9.80
2019-01-27T13:04:35.194Z,10.57
2019-01-27T13:10:25.968Z,9.00
2019-01-27T13:12:53.900Z,9.20
2019-01-27T13:15:21.956Z,9.63
2019-01-27T13:17:48.678Z,8.53
2019-01-27T13:20:18.338Z,9.60
2019-01-27T13:22:48.211Z,8.50
2019-01-27T13:28:37.921Z,8.90
2019-01-27T13:31:07.141Z,7.80
2019-01-27T13:33:38.424Z,8.60
2019-01-27T13:36:06.009Z,9.10
2019-01-27T13:38:33.255Z,7.93
2019-01-27T13:41:00.719Z,8.03
2019-01-27T13:46:52.668Z,7.30
2019-01-27T13:49:20.966Z,7.50
2019-01-27T13:51:49.432Z,7.50
2019-01-27T13:54:16.734Z,7.93
2019-01-27T13:56:44.409Z,6.70
2019-01-27T13:59:12.419Z,6.13
2019-01-27T14:01:40.702Z,7.30
2019-01-27T14:04:15.931Z,7.47
2019-01-27T14:06:48.868Z,7.40
2019-01-27T14:09:16.955Z,7.13
2019-01-27T14:11:48.243Z,7.27
2019-01-27T14:14:16.553Z,6.77
2019-01-27T14:16:44.277Z,6.37
2019-01-27T14:19:14.912Z,5.97
2019-01-27T14:21:44.590Z,6.17
2019-01-27T14:24:11.520Z,6.00
2019-01-27T14:26:38.162Z,6.33
2019-01-27T14:29:07.547Z,6.97
2019-01-27T14:31:35.935Z,5.80
2019-01-27T14:34:08.737Z,5.40
2019-01-27T14:36:36.644Z,6.37
2019-01-27T14:39:06.829Z,5.90
2019-01-27T14:41:36.192Z,6.60
2019-01-27T14:44:11.300Z,5.10
2019-01-27T14:46:41.828Z,5.90
2019-01-27T14:49:10.314Z,6.43
2019-01-27T14:51:37.999Z,5.37
2019-01-27T14:54:05.253Z,6.30
2019-01-27T14:56:33.718Z,6.23
2019-01-27T14:59:03.244Z,6.63
2019-01-27T15:04:42.200Z,5.80
2019-01-27T15:07:10.783Z,5.40
2019-01-27T15:09:38.853Z,5.70
2019-01-27T15:12:06.580Z,5.60
2019-01-27T15:14:34.351Z,5.57
2019-01-27T15:17:05.042Z,5.60
2019-01-27T15:19:33.556Z,6.50
2019-01-27T15:22:01.493Z,6.87
2019-01-27T15:24:33.030Z,7.30
2019-01-27T15:27:03.049Z,6.53
2019-01-27T15:29:31.249Z,5.53
2019-01-27T15:35:24.184Z,6.20
2019-01-27T15:37:55.195Z,6.37
2019-01-27T15:40:23.226Z,6.10
2019-01-27T15:42:57.444Z,5.90
2019-01-27T15:45:30.817Z,5.80
2019-01-27T15:48:03.547Z,6.73
2019-01-27T15:50:33.263Z,6.43
2019-01-27T15:53:01.189Z,7.23
2019-01-27T15:55:29.536Z,7.00
2019-01-27T15:58:05.358Z,9.37
2019-01-27T16:00:32.157Z,6.17
2019-01-27T16:02:59.041Z,6.77
2019-01-27T16:05:26.304Z,6.30
2019-01-27T16:07:53.354Z,8.23
2019-01-27T16:10:26.824Z,6.10
2019-01-27T16:13:05.308Z,7.23
2019-01-27T16:19:08.142Z,7.10
2019-01-27T16:21:36.262Z,7.20
2019-01-27T16:24:05.485Z,6.40
2019-01-27T16:26:32.160Z,6.10
2019-01-27T16:29:01.210Z,6.77
2019-01-27T16:31:31.075Z,5.90
2019-01-27T16:34:00.118Z,6.43
2019-01-27T16:36:27.615Z,7.43
2019-01-27T16:38:55.790Z,6.60
2019-01-27T16:41:23.194Z,6.50
2019-01-27T16:43:50.466Z,7.20
2019-01-27T16:46:18.130Z,6.90
2019-01-27T16:48:45.316Z,6.57
2019-01-27T16:54:37.126Z,7.23
2019-01-27T16:57:04.834Z,7.23
2019-01-27T16:59:32.465Z,6.47
2019-01-27T17:02:00.236Z,5.60
2019-01-27T17:07:51.458Z,6.40
2019-01-27T17:10:25.189Z,6.20
2019-01-27T17:16:18.996Z,6.20
2019-01-27T17:22:10.983Z,7.43
2019-01-27T17:24:38.535Z,6.73
2019-01-27T17:27:11.493Z,6.60
2019-01-27T17:29:41.230Z,7.20
2019-01-27T17:32:09.437Z,6.40
2019-01-27T17:34:35.734Z,7.27
2019-01-27T17:37:11.323Z,7.30
2019-01-27T17:39:40.165Z,8.40
2019-01-27T17:42:08.791Z,8.07
2019-01-27T17:48:11.906Z,9.67
2019-01-27T17:50:40.705Z,8.43
2019-01-27T17:53:09.416Z,7.77
2019-01-27T17:55:44.537Z,9.10
2019-01-27T17:58:31.030Z,9.07
2019-01-27T18:04:36.622Z,7.60
2019-01-27T18:07:09.002Z,7.57
2019-01-27T18:09:37.775Z,7.13
2019-01-27T18:15:17.821Z,7.67
2019-01-27T18:17:46.967Z,7.00
2019-01-27T18:20:15.376Z,7.53
2019-01-27T18:22:49.516Z,8.07
2019-01-27T18:28:29.143Z,7.60
2019-01-27T18:31:02.434Z,7.93
2019-01-27T18:33:31.284Z,7.27
2019-01-27T18:36:02.659Z,7.93
2019-01-27T18:38:40.560Z,7.90
2019-01-27T18:41:10.142Z,9.17
2019-01-27T18:43:38.533Z,8.37
2019-01-27T18:46:08.372Z,8.27
2019-01-27T18:48:38.858Z,8.30
2019-01-27T18:51:06.223Z,8.53
2019-01-27T18:53:44.170Z,8.30
2019-01-27T18:56:15.174Z,7.97
2019-01-27T19:01:57.943Z,7.50
2019-01-27T19:04:29.000Z,8.13
2019-01-27T19:07:09.597Z,9.13
2019-01-27T19:13:02.463Z,8.70
2019-01-27T19:19:00.618Z,8.87
2019-01-27T19:21:29.885Z,9.07
2019-01-27T19:27:31.079Z,8.50
2019-01-27T19:33:35.041Z,9.30
2019-01-27T19:36:07.243Z,8.17
2019-01-27T19:38:43.348Z,11.90
2019-01-27T19:44:34.144Z,10.67
2019-01-27T19:47:08.519Z,9.57
2019-01-27T19:49:40.615Z,8.30
2019-01-27T19:52:09.662Z,9.57
2019-01-27T19:54:44.729Z,11.40
2019-01-27T20:03:18.572Z,8.77
2019-01-27T20:05:53.688Z,8.43
2019-01-27T20:08:28.946Z,9.60
2019-01-27T20:14:20.934Z,9.80
2019-01-27T20:16:50.146Z,9.97
2019-01-27T20:19:27.798Z,10.33
2019-01-27T20:25:24.990Z,10.80
2019-01-27T20:27:53.643Z,9.90
2019-01-27T20:30:25.298Z,9.40
2019-01-27T20:36:15.189Z,9.87
2019-01-27T20:38:49.788Z,9.00
2019-01-27T20:41:33.516Z,9.83
2019-01-27T20:47:26.641Z,9.40
2019-01-27T20:50:04.615Z,9.50
2019-01-27T20:55:57.635Z,10.10
2019-01-27T20:58:28.980Z,9.07
2019-01-27T21:01:03.327Z,8.33
2019-01-27T21:03:31.701Z,8.90
2019-01-27T21:09:50.187Z,9.10
2019-01-27T21:15:32.363Z,8.57
2019-01-27T21:21:23.586Z,9.33
2019-01-27T21:27:06.313Z,8.20
2019-01-27T21:29:34.990Z,9.10
2019-01-27T21:32:01.705Z,8.63
2019-01-27T21:34:28.648Z,9.77
2019-01-27T21:40:41.716Z,8.63
2019-01-27T21:43:09.531Z,9.77
2019-01-27T21:49:00.424Z,8.00
2019-01-27T21:51:27.525Z,8.57
2019-01-27T21:53:54.516Z,8.50
2019-01-27T21:56:26.249Z,9.50
2019-01-27T21:58:54.082Z,8.67
2019-01-27T22:01:25.367Z,9.50
2019-01-27T22:03:51.158Z,9.27
2019-01-27T22:06:18.408Z,9.70
2019-01-27T22:08:45.691Z,8.93
2019-01-27T22:11:12.734Z,9.10
2019-01-27T22:13:41.745Z,9.77
2019-01-27T22:16:08.790Z,10.53
2019-01-27T22:18:36.658Z,10.23
2019-01-27T22:21:10.126Z,10.00
2019-01-27T22:23:37.631Z,10.20
2019-01-27T22:26:06.579Z,8.90
2019-01-27T22:28:33.444Z,10.60
2019-01-27T22:31:00.494Z,10.50
2019-01-27T22:33:30.533Z,10.63
2019-01-27T22:35:57.199Z,10.50
2019-01-27T22:38:24.250Z,10.33
2019-01-27T22:40:51.445Z,10.03
2019-01-27T22:43:20.954Z,10.00
2019-01-27T22:45:48.304Z,11.00
2019-01-27T22:48:15.609Z,12.57
2019-01-27T22:50:42.776Z,11.13
2019-01-27T22:53:10.311Z,12.00
2019-01-27T22:55:37.690Z,12.30
2019-01-27T22:58:04.730Z,11.60
2019-01-27T23:00:59.014Z,12.50
2019-01-27T23:03:26.855Z,12.80
2019-01-27T23:05:54.288Z,13.10
2019-01-27T23:08:24.716Z,12.87
2019-01-27T23:10:52.162Z,12.73
2019-01-27T23:13:21.686Z,14.00
2019-01-27T23:15:49.237Z,15.20
2019-01-27T23:18:18.139Z,13.47
2019-01-27T23:20:45.753Z,14.20
2019-01-27T23:23:13.473Z,13.03
2019-01-27T23:25:40.879Z,14.30
2019-01-27T23:28:08.743Z,14.47
2019-01-27T23:30:35.588Z,14.03
2019-01-27T23:33:02.739Z,14.90
2019-01-27T23:35:29.829Z,15.03
2019-01-27T23:37:56.905Z,14.07
2019-01-27T23:40:26.427Z,13.20
2019-01-27T23:42:55.382Z,13.90
2019-01-27T23:45:26.069Z,13.40
2019-01-27T23:47:53.096Z,14.10
2019-01-27T23:50:20.678Z,14.87
2019-01-27T23:52:48.852Z,14.87
2019-01-27T23:55:15.845Z,15.03
2019-01-27T23:57:42.671Z,15.10
